Air Resources Laboratory banner image
Air Resources Laboratory web site National Oceanic and Atmospheric Administration (NOAA)

wa metar


KALW 131553Z 33004KT 7SM BKN007 OVC015 M02/M03 A3052 RMK AO2 SLP349 T10221033=
KAWO 131556Z AUTO 00000KT 5SM BR CLR M03/M04 A3045 RMK AO2 SLP318 T10331039
 FZRANO=
KBFI 131553Z VRB03KT 10SM SCT250 04/03 A3044 RMK AO2 SLP308 T00390028=
KBLI 131553Z 01004KT 10SM CLR 00/M01 A3045 RMK AO2 SLP322 T00001011=
KBVS 131555Z AUTO 00000KT 10SM CLR M00/M00 A3045 RMK A01=
KCLM 131553Z AUTO 13008KT 10SM CLR 03/02 A3044 RMK AO2 SLP311 T00330022=
KDEW 131553Z AUTO 00000KT 10SM BKN016 OVC025 M03/M05 A3048 RMK AO2 SLP350
 T10331050=
KEAT 131555Z AUTO 26005KT 10SM SCT016 M03/M05 A3053 RMK AO2 SLP354 T10331050=
KELN 131553Z AUTO 00000KT 7SM OVC008 M02/M04 A3049 RMK AO2 SLP347 T10171044=
KEPH 131553Z AUTO 30004KT 10SM OVC014 M02/M06 A3053 RMK AO2 SLP355 T10171061=
KFHR 131553Z AUTO VRB05KT 10SM CLR 06/04 A3045 RMK AO2 SLP312 T00560039 $=
KGEG 131553Z 31003KT 10SM BKN010 OVC030 M03/M05 A3046 RMK AO2 SNE13 SLP343
 P0000 T10331050=
KGRF 131558Z AUTO 00000KT 10SM CLR M02/M02 A3042 RMK AO2 SLP309 T10231023 $=
KHQM 131553Z AUTO 08006KT 6SM BR CLR 01/01 A3040 RMK AO2 SLP297 T00110006=
KKLS 131556Z AUTO 14003KT 10SM CLR M02/M03 A3041 RMK AO2 SLP304 T10221028
 FZRANO=
KMWH 131552Z 33003KT 10SM OVC012 M02/M04 A3054 RMK AO2 SLP356 T10171039=
KNOW 131555Z AUTO 13008KT 10SM CLR 07/03 A3045 RMK AO2 T00730034=
KNUW 131556Z 14005KT 6SM BR BCFG SCT008 SCT180 BKN250 02/M01 A3049 RMK SLP323
 T00171006=
KOLM 131554Z 00000KT 1/4SM FZFG VV001 M02/M02 A3042 RMK AO2 SLP303 I1001
 T10171017=
KOMK 131553Z AUTO 00000KT 10SM BKN025 M03/M04 A3053 RMK AO2 SLP356 T10281039=
KORS 131555Z AUTO 36004KT 9SM BKN007 06/06 A3045 RMK AO2=
KPAE 131553Z 35006KT 4SM BCFG FEW002 03/03 A3043 RMK AO2 SLP310 T00330028=
KPSC 131553Z 00000KT 5SM BR OVC020 M01/M02 A3058 RMK AO2 SLP361 T10061017=
KPUW 131553Z AUTO 00000KT 6SM BR OVC006 M04/M06 A3045 RMK AO2 SLP343 T10391056=
KPWT 131556Z AUTO 04009KT 6SM BR FEW003 03/03 A3041 RMK AO2 SLP318 T00330033=
KRNT 131553Z 00000KT 10SM CLR 00/M01 A3044 RMK AO2 SLP312 T00001011=
KSEA 131553Z 36004KT 10SM FEW200 02/M01 A3042 RMK AO2 SLP311 T00221006=
KSFF 131553Z 00000KT 10SM OVC012 M02/M04 A3049 RMK AO2 SLP349 T10221044=
KSHN 131553Z AUTO 00000KT 7SM OVC009 M01/M01 A3039 RMK AO2 SLP298 T10061011=
KSKA 131558Z 00000KT 10SM OVC009 M04/M04 A3044 RMK AO2A SLP344 T10401041 $=
KSMP 131556Z AUTO 03004KT 1/4SM FZFG VV001 M07/M08 A3036 RMK AO2 SLP329 I1000
 T10671083 $=
KTCM 131558Z AUTO 00000KT 4SM BR CLR M03/M03 A3042 RMK AO2 SLP309 T10261026 $=
KTIW 131553Z VRB04KT 10SM CLR 04/02 A3042 RMK AO2 SLP305 T00390022=
KUIL 131553Z AUTO 00000KT 1/4SM FG VV002 01/01 A3040 RMK AO2 SLP295 T00110011=
KVUO 131553Z AUTO 00000KT 8SM CLR M02/M03 A3041 RMK AO2 SLP297 T10221028=
KYKM 131553Z 00000KT 7SM OVC016 M01/M03 A3054 RMK AO2 SLP354 T10061033=